createdAt,value
2023-05-10T00:02:48.462Z,12.40
2023-05-10T00:05:50.997Z,12.39
2023-05-10T00:08:53.157Z,12.41
2023-05-10T00:11:55.789Z,12.38
2023-05-10T00:14:57.957Z,12.28
2023-05-10T00:18:00.425Z,12.31
2023-05-10T00:21:05.825Z,12.19
2023-05-10T00:24:08.442Z,12.10
2023-05-10T00:27:10.611Z,12.13
2023-05-10T00:30:13.227Z,12.08
2023-05-10T00:33:15.554Z,12.13
2023-05-10T00:36:18.021Z,12.01
2023-05-10T00:39:20.397Z,11.99
2023-05-10T00:42:23.230Z,11.97
2023-05-10T00:45:28.010Z,11.91
2023-05-10T00:48:30.805Z,11.75
2023-05-10T00:51:33.908Z,11.74
2023-05-10T00:54:36.515Z,11.71
2023-05-10T00:57:39.192Z,11.71
2023-05-10T01:00:44.748Z,11.66
2023-05-10T01:03:47.857Z,11.51
2023-05-10T01:06:51.268Z,11.51
2023-05-10T01:09:53.562Z,11.57
2023-05-10T01:12:56.394Z,11.47
2023-05-10T01:15:59.031Z,11.48
2023-05-10T01:19:01.656Z,11.48
2023-05-10T01:22:31.470Z,11.44
2023-05-10T01:25:45.896Z,11.38
2023-05-10T01:29:45.268Z,11.45
2023-05-10T01:32:56.769Z,11.45
2023-05-10T01:36:16.440Z,11.41
2023-05-10T01:39:26.863Z,11.43
2023-05-10T01:42:39.247Z,11.46
2023-05-10T01:45:59.211Z,11.47
2023-05-10T01:49:03.522Z,11.44
2023-05-10T01:52:11.642Z,11.31
2023-05-10T01:55:17.485Z,11.31
2023-05-10T01:58:24.006Z,11.34
2023-05-10T02:01:27.886Z,11.41
2023-05-10T02:04:31.054Z,11.45
2023-05-10T02:07:36.441Z,11.42
2023-05-10T02:10:41.205Z,11.37
2023-05-10T02:13:46.010Z,11.37
2023-05-10T02:16:50.047Z,11.32
2023-05-10T02:19:54.836Z,11.38
2023-05-10T02:22:58.560Z,11.45
2023-05-10T02:26:02.827Z,11.45
2023-05-10T02:29:06.635Z,11.51
2023-05-10T02:32:12.140Z,11.54
2023-05-10T02:35:16.117Z,11.57
2023-05-10T02:38:21.877Z,11.52
2023-05-10T02:41:25.317Z,11.53
2023-05-10T02:44:32.002Z,11.55
2023-05-10T02:47:34.394Z,11.59
2023-05-10T02:50:38.103Z,11.62
2023-05-10T02:53:44.687Z,11.64
2023-05-10T02:56:58.568Z,11.66
2023-05-10T03:00:02.122Z,11.63
2023-05-10T03:03:04.667Z,11.71
2023-05-10T03:06:06.956Z,11.70
2023-05-10T03:09:13.540Z,11.65
2023-05-10T03:12:34.477Z,11.69
2023-05-10T03:15:58.998Z,11.60
2023-05-10T03:19:11.769Z,11.62
2023-05-10T03:22:21.878Z,11.48
2023-05-10T03:25:25.021Z,11.46
2023-05-10T03:28:28.694Z,11.39
2023-05-10T03:31:31.026Z,11.33
2023-05-10T03:34:33.555Z,11.29
2023-05-10T03:37:36.215Z,11.26
2023-05-10T03:40:38.910Z,11.20
2023-05-10T03:43:42.087Z,11.26
2023-05-10T03:46:44.621Z,11.17
2023-05-10T03:49:46.904Z,11.24
2023-05-10T03:52:49.658Z,11.16
2023-05-10T03:55:52.024Z,11.19
2023-05-10T03:58:54.504Z,11.22
2023-05-10T04:01:57.025Z,11.10
2023-05-10T04:04:59.427Z,11.05
2023-05-10T04:08:01.551Z,11.13
2023-05-10T04:11:07.461Z,11.12
2023-05-10T04:14:10.024Z,11.21
2023-05-10T04:17:12.457Z,11.15
2023-05-10T04:20:15.028Z,11.08
2023-05-10T04:23:17.686Z,11.00
2023-05-10T04:26:19.863Z,11.01
2023-05-10T04:29:22.327Z,10.94
2023-05-10T04:32:24.670Z,10.98
2023-05-10T04:35:27.264Z,10.97
2023-05-10T04:38:30.030Z,10.94
2023-05-10T04:41:32.540Z,11.04
2023-05-10T04:44:34.728Z,10.99
2023-05-10T04:47:38.083Z,10.96
2023-05-10T04:50:40.500Z,11.01
2023-05-10T04:53:46.472Z,10.99
2023-05-10T04:56:53.335Z,11.03
2023-05-10T04:59:55.959Z,11.00
2023-05-10T05:02:58.378Z,10.96
2023-05-10T05:06:00.920Z,10.98
2023-05-10T05:09:03.448Z,11.01
2023-05-10T05:12:06.185Z,11.08
2023-05-10T05:15:10.341Z,11.07
2023-05-10T05:18:12.829Z,11.13
2023-05-10T05:21:16.874Z,11.20
2023-05-10T05:24:19.345Z,11.27
2023-05-10T05:27:25.371Z,11.39
2023-05-10T05:30:27.860Z,11.56
2023-05-10T05:33:30.253Z,11.62
2023-05-10T05:36:34.537Z,11.64
2023-05-10T05:39:38.294Z,11.61
2023-05-10T05:42:40.711Z,11.64
2023-05-10T05:45:42.957Z,11.68
2023-05-10T05:48:45.708Z,11.66
2023-05-10T05:51:48.477Z,11.66
2023-05-10T05:54:50.969Z,11.66
2023-05-10T05:57:53.142Z,11.71
2023-05-10T06:00:55.643Z,11.75
2023-05-10T06:03:58.267Z,11.81
2023-05-10T06:07:00.539Z,11.80
2023-05-10T06:10:04.107Z,11.88
2023-05-10T06:13:06.607Z,11.93
2023-05-10T06:16:09.499Z,11.98
2023-05-10T06:19:11.852Z,12.07
2023-05-10T06:22:14.351Z,12.12
2023-05-10T06:25:18.991Z,12.17
2023-05-10T06:28:22.002Z,12.25
2023-05-10T06:31:24.359Z,12.26
2023-05-10T06:34:27.242Z,12.37
2023-05-10T06:37:29.360Z,12.40
2023-05-10T06:40:31.927Z,12.48
2023-05-10T06:43:34.089Z,12.50
2023-05-10T06:46:36.757Z,12.60
2023-05-10T06:49:38.956Z,12.67
2023-05-10T06:52:41.491Z,12.72
2023-05-10T06:55:43.710Z,12.84
2023-05-10T06:58:46.556Z,12.88
2023-05-10T07:01:49.030Z,12.98
2023-05-10T07:04:52.938Z,13.17
2023-05-10T07:07:55.201Z,13.34
2023-05-10T07:11:02.623Z,13.51
2023-05-10T07:14:04.752Z,13.64
2023-05-10T07:17:07.313Z,13.88
2023-05-10T07:20:09.893Z,14.18
2023-05-10T07:23:12.365Z,14.42
2023-05-10T07:26:15.816Z,14.53
2023-05-10T07:29:18.230Z,14.68
2023-05-10T07:32:20.530Z,14.78
2023-05-10T07:35:23.082Z,14.86
2023-05-10T07:38:25.290Z,15.00
2023-05-10T07:41:28.197Z,15.49
2023-05-10T07:44:30.425Z,16.17
2023-05-10T07:47:32.984Z,16.83
2023-05-10T07:50:35.208Z,17.03
2023-05-10T07:53:38.594Z,17.43
2023-05-10T07:56:45.680Z,17.39
2023-05-10T07:59:48.478Z,17.05
2023-05-10T08:02:50.676Z,16.80
2023-05-10T08:05:53.126Z,16.81
2023-05-10T08:08:55.472Z,16.95
2023-05-10T08:11:59.719Z,16.89
2023-05-10T08:15:01.928Z,17.06
2023-05-10T08:18:05.213Z,17.52
2023-05-10T08:21:07.674Z,18.37
2023-05-10T08:24:10.141Z,17.94
2023-05-10T08:27:12.389Z,18.09
2023-05-10T08:30:14.986Z,19.02
2023-05-10T08:33:19.294Z,19.66
2023-05-10T08:36:22.971Z,19.04
2023-05-10T08:39:30.225Z,18.38
2023-05-10T08:42:37.210Z,18.75
2023-05-10T08:45:42.217Z,18.55
2023-05-10T08:48:46.759Z,18.47
2023-05-10T08:51:53.165Z,19.01
2023-05-10T08:54:55.753Z,19.55
2023-05-10T08:57:58.183Z,19.05
2023-05-10T09:01:02.177Z,18.56
2023-05-10T09:04:05.352Z,17.96
2023-05-10T09:07:08.267Z,17.74
2023-05-10T09:10:14.257Z,17.89
2023-05-10T09:13:18.378Z,17.88
2023-05-10T09:16:22.486Z,18.48
2023-05-10T09:19:25.145Z,18.29
2023-05-10T09:22:28.090Z,18.41
2023-05-10T09:25:34.947Z,18.83
2023-05-10T09:28:58.386Z,19.98
2023-05-10T09:32:01.252Z,20.42
2023-05-10T09:35:15.174Z,20.94
2023-05-10T09:38:17.822Z,21.01
2023-05-10T09:41:22.572Z,21.32
2023-05-10T09:44:26.848Z,21.34
2023-05-10T09:47:29.099Z,20.95
2023-05-10T09:50:31.894Z,20.97
2023-05-10T09:53:34.176Z,21.09
2023-05-10T09:56:38.518Z,20.37
2023-05-10T09:59:45.026Z,20.09
2023-05-10T10:02:55.239Z,20.65
2023-05-10T10:05:58.078Z,20.65
2023-05-10T10:09:00.437Z,20.73
2023-05-10T10:12:03.838Z,20.57
2023-05-10T10:15:07.658Z,21.12
2023-05-10T10:18:14.179Z,21.41
2023-05-10T10:21:16.832Z,21.86
2023-05-10T10:24:19.293Z,22.17
2023-05-10T10:27:29.565Z,22.00
2023-05-10T10:30:43.647Z,22.36
2023-05-10T10:34:00.359Z,21.53
2023-05-10T10:37:07.661Z,21.50
2023-05-10T10:40:33.656Z,21.19
2023-05-10T10:43:37.318Z,20.77
2023-05-10T10:46:59.529Z,20.54
2023-05-10T10:50:02.073Z,20.46
2023-05-10T10:53:12.151Z,21.19
2023-05-10T10:56:16.289Z,21.45
2023-05-10T10:59:28.190Z,20.72
2023-05-10T11:02:51.315Z,20.07
2023-05-10T11:05:59.518Z,20.37
2023-05-10T11:09:13.039Z,20.63
2023-05-10T11:12:15.419Z,20.12
2023-05-10T11:15:18.192Z,19.60
2023-05-10T11:18:30.524Z,19.77
2023-05-10T11:21:34.148Z,19.55
2023-05-10T11:24:36.793Z,19.39
2023-05-10T11:27:39.504Z,19.78
2023-05-10T11:30:44.105Z,19.92
2023-05-10T11:33:49.410Z,20.08
2023-05-10T11:36:54.734Z,20.14
2023-05-10T11:39:57.487Z,20.34
2023-05-10T11:43:00.496Z,20.31
2023-05-10T11:46:04.025Z,20.31
2023-05-10T11:49:08.304Z,20.26
2023-05-10T11:52:12.402Z,20.02
2023-05-10T11:55:14.870Z,19.93
2023-05-10T11:58:19.172Z,19.80
2023-05-10T12:01:22.181Z,19.76
2023-05-10T12:04:28.680Z,19.91
2023-05-10T12:07:30.979Z,19.98
2023-05-10T12:10:35.785Z,20.14
2023-05-10T12:13:42.817Z,20.32
2023-05-10T12:16:45.428Z,20.50
2023-05-10T12:19:48.171Z,20.32
2023-05-10T12:22:55.626Z,20.23
2023-05-10T12:26:05.575Z,20.02
2023-05-10T12:29:14.954Z,19.96
2023-05-10T12:32:17.222Z,19.84
2023-05-10T12:35:24.910Z,19.52
2023-05-10T12:38:48.807Z,19.53
2023-05-10T12:41:55.905Z,19.64
2023-05-10T12:44:58.462Z,19.67
2023-05-10T12:48:01.064Z,19.84
2023-05-10T12:51:04.641Z,19.95
2023-05-10T12:54:07.059Z,20.06
2023-05-10T12:57:09.220Z,20.14
2023-05-10T13:00:12.257Z,20.18
2023-05-10T13:03:14.508Z,20.18
2023-05-10T13:06:17.005Z,20.03
2023-05-10T13:09:19.826Z,19.79
2023-05-10T13:12:22.286Z,19.83
2023-05-10T13:15:24.602Z,19.90
2023-05-10T13:18:27.650Z,20.12
2023-05-10T13:21:29.964Z,20.40
2023-05-10T13:24:32.519Z,20.60
2023-05-10T13:27:34.740Z,20.81
2023-05-10T13:30:37.209Z,20.92
2023-05-10T13:33:39.492Z,20.32
2023-05-10T13:36:42.101Z,19.98
2023-05-10T13:39:44.373Z,19.88
2023-05-10T13:42:46.922Z,19.83
2023-05-10T13:45:49.158Z,19.77
2023-05-10T13:48:51.615Z,19.70
2023-05-10T13:51:53.766Z,19.78
2023-05-10T13:54:56.252Z,19.77
2023-05-10T13:57:58.928Z,19.70
2023-05-10T14:01:01.489Z,19.61
2023-05-10T14:04:04.493Z,19.58
2023-05-10T14:07:06.787Z,19.55
2023-05-10T14:10:09.410Z,19.44
2023-05-10T14:13:11.583Z,19.40
2023-05-10T14:16:15.703Z,19.51
2023-05-10T14:19:18.425Z,19.57
2023-05-10T14:22:20.921Z,19.70
2023-05-10T14:25:23.711Z,19.78
2023-05-10T14:28:26.269Z,19.67
2023-05-10T14:31:28.617Z,19.67
2023-05-10T14:34:31.094Z,19.60
2023-05-10T14:37:33.461Z,19.53
2023-05-10T14:40:35.902Z,19.58
2023-05-10T14:43:38.006Z,19.67
2023-05-10T14:46:41.083Z,19.82
2023-05-10T14:49:43.217Z,20.10
2023-05-10T14:52:45.647Z,20.28
2023-05-10T14:55:47.774Z,20.50
2023-05-10T14:58:51.382Z,20.65
2023-05-10T15:01:53.995Z,20.64
2023-05-10T15:04:56.819Z,20.48
2023-05-10T15:07:59.578Z,20.57
2023-05-10T15:11:02.482Z,20.50
2023-05-10T15:14:04.630Z,20.33
2023-05-10T15:17:08.449Z,20.10
2023-05-10T15:20:10.830Z,19.99
2023-05-10T15:23:13.496Z,19.92
2023-05-10T15:26:16.676Z,19.82
2023-05-10T15:29:20.925Z,19.66
2023-05-10T15:32:23.163Z,19.52
2023-05-10T15:35:26.947Z,19.53
2023-05-10T15:38:29.128Z,19.44
2023-05-10T15:41:31.569Z,19.45
2023-05-10T15:44:35.921Z,19.48
2023-05-10T15:47:40.421Z,19.37
2023-05-10T15:50:42.765Z,19.38
2023-05-10T15:54:00.536Z,19.29
2023-05-10T15:57:08.140Z,19.29
2023-05-10T16:00:12.052Z,19.15
2023-05-10T16:03:14.111Z,19.20
2023-05-10T16:06:16.649Z,19.20
2023-05-10T16:09:18.787Z,19.20
2023-05-10T16:12:21.355Z,19.17
2023-05-10T16:15:23.486Z,19.16
2023-05-10T16:18:26.005Z,19.16
2023-05-10T16:21:29.875Z,19.11
2023-05-10T16:24:32.450Z,19.10
2023-05-10T16:27:35.117Z,19.10
2023-05-10T16:30:37.827Z,18.93
2023-05-10T16:33:40.045Z,19.02
2023-05-10T16:36:42.571Z,18.92
2023-05-10T16:39:44.737Z,18.85
2023-05-10T16:42:47.238Z,18.83
2023-05-10T16:45:49.478Z,18.77
2023-05-10T16:48:51.924Z,18.76
2023-05-10T16:51:54.064Z,18.62
2023-05-10T16:54:56.861Z,18.59
2023-05-10T16:58:00.882Z,18.56
2023-05-10T17:01:03.559Z,18.47
2023-05-10T17:04:05.792Z,18.48
2023-05-10T17:07:08.753Z,18.39
2023-05-10T17:10:12.101Z,18.29
2023-05-10T17:13:14.606Z,18.25
2023-05-10T17:16:16.951Z,18.13
2023-05-10T17:19:19.480Z,18.03
2023-05-10T17:22:21.623Z,18.04
2023-05-10T17:25:24.098Z,17.94
2023-05-10T17:28:26.306Z,17.74
2023-05-10T17:31:29.737Z,17.69
2023-05-10T17:34:32.011Z,17.72
2023-05-10T17:37:34.526Z,17.62
2023-05-10T17:40:40.531Z,17.54
2023-05-10T17:43:43.481Z,17.51
2023-05-10T17:46:45.815Z,17.42
2023-05-10T17:49:48.313Z,17.38
2023-05-10T17:52:50.476Z,17.32
2023-05-10T17:55:53.736Z,17.16
2023-05-10T17:58:55.908Z,17.17
2023-05-10T18:01:58.315Z,17.12
2023-05-10T18:05:01.653Z,17.09
2023-05-10T18:08:05.225Z,17.03
2023-05-10T18:11:07.787Z,16.85
2023-05-10T18:14:09.925Z,16.77
2023-05-10T18:17:12.496Z,16.72
2023-05-10T18:20:15.004Z,16.56
2023-05-10T18:23:17.456Z,16.59
2023-05-10T18:26:19.617Z,16.52
2023-05-10T18:29:22.252Z,16.41
2023-05-10T18:32:24.538Z,16.32
2023-05-10T18:35:27.040Z,16.27
2023-05-10T18:38:29.300Z,16.22
2023-05-10T18:41:31.807Z,16.15
2023-05-10T18:44:34.233Z,16.09
2023-05-10T18:47:36.738Z,16.02
2023-05-10T18:50:39.454Z,15.92
2023-05-10T18:53:41.863Z,15.84
2023-05-10T18:56:45.311Z,15.81
2023-05-10T18:59:48.909Z,15.76
2023-05-10T19:02:51.152Z,15.76
2023-05-10T19:05:53.591Z,15.76
2023-05-10T19:08:55.723Z,15.63
2023-05-10T19:11:58.211Z,15.66
2023-05-10T19:15:00.370Z,15.65
2023-05-10T19:18:03.276Z,15.67
2023-05-10T19:21:08.817Z,15.68
2023-05-10T19:24:11.917Z,15.68
2023-05-10T19:27:14.979Z,15.64
2023-05-10T19:30:17.705Z,15.59
2023-05-10T19:33:20.222Z,15.51
2023-05-10T19:36:23.085Z,15.52
2023-05-10T19:39:27.066Z,15.42
2023-05-10T19:42:30.042Z,15.41
2023-05-10T19:45:35.038Z,15.35
2023-05-10T19:48:39.056Z,15.36
2023-05-10T19:51:41.320Z,15.27
2023-05-10T19:54:44.836Z,15.25
2023-05-10T19:57:46.985Z,15.21
2023-05-10T20:00:49.444Z,15.24
2023-05-10T20:03:52.077Z,15.25
2023-05-10T20:06:54.386Z,15.22
2023-05-10T20:09:56.807Z,15.15
2023-05-10T20:13:00.293Z,15.13
2023-05-10T20:16:03.795Z,15.13
2023-05-10T20:19:06.251Z,15.16
2023-05-10T20:22:09.388Z,15.15
2023-05-10T20:25:12.011Z,15.15
2023-05-10T20:28:14.462Z,15.23
2023-05-10T20:31:16.796Z,15.33
2023-05-10T20:34:19.361Z,15.49
2023-05-10T20:37:21.955Z,15.51
2023-05-10T20:40:24.447Z,15.55
2023-05-10T20:43:26.664Z,15.53
2023-05-10T20:46:30.245Z,15.49
2023-05-10T20:49:32.639Z,15.49
2023-05-10T20:52:35.087Z,15.48
2023-05-10T20:55:37.286Z,15.45
2023-05-10T20:58:39.744Z,15.44
2023-05-10T21:01:42.235Z,15.39
2023-05-10T21:04:44.740Z,15.30
2023-05-10T21:07:46.895Z,15.33
2023-05-10T21:10:49.419Z,15.28
2023-05-10T21:13:51.758Z,15.34
2023-05-10T21:16:54.466Z,15.39
2023-05-10T21:19:56.623Z,15.34
2023-05-10T21:22:59.072Z,15.42
2023-05-10T21:26:03.233Z,15.44
2023-05-10T21:29:06.085Z,15.46
2023-05-10T21:32:08.372Z,15.48
2023-05-10T21:35:10.962Z,15.42
2023-05-10T21:38:13.168Z,15.46
2023-05-10T21:41:15.838Z,15.56
2023-05-10T21:44:18.098Z,15.55
2023-05-10T21:47:20.608Z,15.42
2023-05-10T21:50:22.929Z,15.44
2023-05-10T21:53:25.372Z,15.48
2023-05-10T21:56:27.497Z,15.52
2023-05-10T21:59:29.917Z,15.42
2023-05-10T22:02:32.107Z,15.54
2023-05-10T22:05:34.966Z,15.54
2023-05-10T22:08:37.133Z,15.55
2023-05-10T22:11:39.571Z,15.46
2023-05-10T22:14:41.712Z,15.49
2023-05-10T22:17:44.210Z,15.38
2023-05-10T22:20:46.556Z,15.35
2023-05-10T22:23:49.010Z,15.33
2023-05-10T22:26:54.500Z,15.18
2023-05-10T22:29:56.975Z,15.12
2023-05-10T22:32:59.640Z,15.13
2023-05-10T22:36:02.156Z,15.14
2023-05-10T22:39:04.310Z,15.13
2023-05-10T22:42:06.918Z,15.07
2023-05-10T22:45:09.784Z,15.03
2023-05-10T22:48:12.670Z,14.92
2023-05-10T22:51:14.868Z,14.91
2023-05-10T22:54:17.275Z,14.84
2023-05-10T22:57:19.656Z,14.75
2023-05-10T23:00:22.151Z,14.68
2023-05-10T23:03:25.257Z,14.55
2023-05-10T23:06:28.230Z,14.48
2023-05-10T23:09:30.415Z,14.41
2023-05-10T23:12:33.640Z,14.23
2023-05-10T23:15:36.263Z,14.11
2023-05-10T23:18:39.562Z,14.14
2023-05-10T23:21:41.701Z,13.98
2023-05-10T23:24:44.129Z,13.90
2023-05-10T23:27:46.598Z,13.93
2023-05-10T23:30:55.539Z,13.97
2023-05-10T23:33:57.712Z,13.94
2023-05-10T23:37:00.223Z,13.86
2023-05-10T23:40:03.048Z,13.78
2023-05-10T23:43:05.454Z,13.78
2023-05-10T23:46:07.697Z,13.67
2023-05-10T23:49:10.107Z,13.63
2023-05-10T23:52:12.509Z,13.52
2023-05-10T23:55:14.992Z,13.52
2023-05-10T23:58:17.210Z,13.46
